createdAt,value
2017-07-20T00:00:17.372Z,0
2017-07-20T00:01:27.656Z,0
2017-07-20T00:02:37.939Z,0
2017-07-20T00:03:48.217Z,0
2017-07-20T00:04:58.147Z,0
2017-07-20T00:06:08.912Z,0
2017-07-20T00:07:19.196Z,0
2017-07-20T00:08:29.473Z,0
2017-07-20T00:09:39.457Z,0
2017-07-20T00:10:49.750Z,0
2017-07-20T00:12:00.292Z,0
2017-07-20T00:13:10.575Z,0
2017-07-20T00:14:20.861Z,0
2017-07-20T00:15:31.144Z,0
2017-07-20T00:16:41.123Z,0
2017-07-20T00:17:51.353Z,0
2017-07-20T00:19:01.335Z,0
2017-07-20T00:20:11.610Z,0
2017-07-20T00:21:21.912Z,0
2017-07-20T00:22:32.212Z,0
2017-07-20T00:23:42.431Z,0
2017-07-20T00:24:52.724Z,0
2017-07-20T00:26:02.999Z,0
2017-07-20T00:27:13.283Z,0
2017-07-20T00:28:23.575Z,0
2017-07-20T00:29:33.483Z,0
2017-07-20T00:30:43.755Z,0
2017-07-20T00:31:54.039Z,0
2017-07-20T00:33:04.007Z,0
2017-07-20T00:34:14.300Z,0
2017-07-20T00:35:24.894Z,0
2017-07-20T00:36:35.165Z,0
2017-07-20T00:37:45.446Z,0
2017-07-20T00:38:55.418Z,0
2017-07-20T00:40:05.700Z,0
2017-07-20T00:41:15.909Z,0
2017-07-20T00:42:26.195Z,0
2017-07-20T00:43:36.154Z,0
2017-07-20T00:44:46.428Z,0
2017-07-20T00:45:56.391Z,0
2017-07-20T00:47:06.674Z,0
2017-07-20T00:48:16.972Z,0
2017-07-20T00:49:26.931Z,0
2017-07-20T00:50:36.898Z,0
2017-07-20T00:51:46.558Z,0
2017-07-20T00:52:57.096Z,0
2017-07-20T00:54:07.385Z,0
2017-07-20T00:55:17.369Z,0
2017-07-20T00:56:27.654Z,0
2017-07-20T00:57:37.324Z,0
2017-07-20T00:58:47.224Z,0
2017-07-20T00:59:57.208Z,0
2017-07-20T01:01:07.494Z,0
2017-07-20T01:02:17.161Z,0
2017-07-20T01:03:27.444Z,0
2017-07-20T01:04:37.972Z,0
2017-07-20T01:05:47.942Z,0
2017-07-20T01:06:57.909Z,0
2017-07-20T01:08:08.176Z,0
2017-07-20T01:09:18.450Z,0
2017-07-20T01:10:28.974Z,0
2017-07-20T01:11:38.951Z,0
2017-07-20T01:12:49.247Z,0
2017-07-20T01:13:59.538Z,0
2017-07-20T01:15:10.279Z,0
2017-07-20T01:16:20.533Z,0
2017-07-20T01:17:30.848Z,0
2017-07-20T01:18:40.829Z,0
2017-07-20T01:19:51.108Z,0
2017-07-20T01:21:01.385Z,0
2017-07-20T01:22:11.913Z,0
2017-07-20T01:23:22.207Z,0
2017-07-20T01:24:32.506Z,0
2017-07-20T01:25:42.790Z,0
2017-07-20T01:26:52.753Z,0
2017-07-20T01:28:03.272Z,0
2017-07-20T01:29:13.263Z,0
2017-07-20T01:30:23.244Z,0
2017-07-20T01:31:33.528Z,0
2017-07-20T01:32:43.497Z,0
2017-07-20T01:33:54.031Z,0
2017-07-20T01:35:04.023Z,0
2017-07-20T01:36:14.295Z,0
2017-07-20T01:37:24.557Z,0
2017-07-20T01:38:34.837Z,0
2017-07-20T01:39:45.069Z,0
2017-07-20T01:40:54.734Z,0
2017-07-20T01:42:04.728Z,0
2017-07-20T01:43:15.002Z,0
2017-07-20T01:44:25.289Z,0
2017-07-20T01:45:35.823Z,0
2017-07-20T01:46:46.096Z,0
2017-07-20T01:47:56.385Z,0
2017-07-20T01:49:06.350Z,0
2017-07-20T01:50:16.645Z,0
2017-07-20T01:51:27.174Z,0
2017-07-20T01:52:37.185Z,0
2017-07-20T01:53:47.184Z,0
2017-07-20T01:54:56.854Z,0
2017-07-20T01:56:07.131Z,0
2017-07-20T01:57:17.679Z,0
2017-07-20T01:58:27.650Z,0
2017-07-20T01:59:37.628Z,0
2017-07-20T02:00:47.896Z,0
2017-07-20T02:01:57.855Z,0
2017-07-20T02:03:08.075Z,0
2017-07-20T02:04:18.350Z,0
2017-07-20T02:05:28.620Z,0
2017-07-20T02:06:38.895Z,0
2017-07-20T02:07:49.187Z,0
2017-07-20T02:08:59.712Z,0
2017-07-20T02:10:10.002Z,0
2017-07-20T02:11:20.265Z,0
2017-07-20T02:12:30.543Z,0
2017-07-20T02:13:40.844Z,0
2017-07-20T02:14:51.373Z,0
2017-07-20T02:16:01.686Z,0
2017-07-20T02:17:11.962Z,0
2017-07-20T02:18:21.938Z,0
2017-07-20T02:19:31.910Z,0
2017-07-20T02:20:42.133Z,0
2017-07-20T02:21:52.108Z,0
2017-07-20T02:23:02.394Z,0
2017-07-20T02:24:12.656Z,0
2017-07-20T02:25:22.013Z,0
2017-07-20T02:26:32.532Z,0
2017-07-20T02:27:42.825Z,0
2017-07-20T02:28:52.792Z,0
2017-07-20T02:30:02.775Z,0
2017-07-20T02:31:13.063Z,0
2017-07-20T02:32:23.297Z,0
2017-07-20T02:33:33.589Z,0
2017-07-20T02:34:43.876Z,0
2017-07-20T02:35:53.864Z,0
2017-07-20T02:37:04.145Z,0
2017-07-20T02:38:14.684Z,0
2017-07-20T02:39:24.944Z,0
2017-07-20T02:40:34.914Z,0
2017-07-20T02:41:45.219Z,0
2017-07-20T02:42:55.514Z,0
2017-07-20T02:44:06.050Z,0
2017-07-20T02:45:16.342Z,0
2017-07-20T02:46:26.326Z,0
2017-07-20T02:47:36.604Z,0
2017-07-20T02:48:46.899Z,0
2017-07-20T02:49:57.440Z,0
2017-07-20T02:51:07.726Z,0
2017-07-20T02:52:17.692Z,0
2017-07-20T02:53:27.978Z,0
2017-07-20T02:54:38.255Z,0
2017-07-20T02:55:48.460Z,0
2017-07-20T02:56:58.745Z,0
2017-07-20T02:58:08.737Z,0
2017-07-20T02:59:18.729Z,0
2017-07-20T03:00:28.701Z,0
2017-07-20T03:01:39.272Z,0
2017-07-20T03:02:49.551Z,0
2017-07-20T03:03:59.833Z,0
2017-07-20T03:05:09.526Z,0
2017-07-20T03:06:19.789Z,0
2017-07-20T03:07:30.333Z,0
2017-07-20T03:08:40.304Z,0
2017-07-20T03:09:50.590Z,0
2017-07-20T03:11:00.857Z,5
2017-07-20T03:12:10.521Z,5
2017-07-20T03:13:20.449Z,5
2017-07-20T03:14:30.728Z,5
2017-07-20T03:15:40.715Z,5
2017-07-20T03:16:50.674Z,5
2017-07-20T03:18:00.647Z,5
2017-07-20T03:19:11.179Z,5
2017-07-20T03:20:20.839Z,10
2017-07-20T03:21:30.490Z,10
2017-07-20T03:22:40.789Z,10
2017-07-20T03:23:51.056Z,10
2017-07-20T03:25:01.589Z,10
2017-07-20T03:26:11.265Z,15
2017-07-20T03:27:21.570Z,15
2017-07-20T03:28:31.840Z,15
2017-07-20T03:29:41.809Z,15
2017-07-20T03:30:52.028Z,20
2017-07-20T03:32:02.306Z,20
2017-07-20T03:33:12.590Z,20
2017-07-20T03:34:22.884Z,25
2017-07-20T03:35:33.626Z,25
2017-07-20T03:36:43.860Z,25
2017-07-20T03:37:54.138Z,30
2017-07-20T03:39:04.414Z,30
2017-07-20T03:40:14.719Z,30
2017-07-20T03:41:24.990Z,30
2017-07-20T03:42:35.256Z,30
2017-07-20T03:43:45.578Z,30
2017-07-20T03:44:55.564Z,30
2017-07-20T03:46:05.834Z,30
2017-07-20T03:47:15.795Z,35
2017-07-20T03:48:25.397Z,40
2017-07-20T03:49:35.378Z,40
2017-07-20T03:50:45.356Z,45
2017-07-20T03:51:55.618Z,50
2017-07-20T03:53:05.591Z,50
2017-07-20T03:54:15.821Z,50
2017-07-20T03:55:26.105Z,55
2017-07-20T03:56:36.382Z,60
2017-07-20T03:57:46.658Z,60
2017-07-20T03:58:56.943Z,65
2017-07-20T04:00:07.487Z,70
2017-07-20T04:01:17.453Z,70
2017-07-20T04:02:27.424Z,75
2017-07-20T04:03:37.725Z,75
2017-07-20T04:04:48.023Z,75
2017-07-20T04:05:58.549Z,80
2017-07-20T04:07:08.833Z,80
2017-07-20T04:08:19.108Z,80
2017-07-20T04:09:29.075Z,80
2017-07-20T04:10:39.059Z,80
2017-07-20T04:11:48.979Z,85
2017-07-20T04:12:58.956Z,85
2017-07-20T04:14:09.236Z,85
2017-07-20T04:15:19.538Z,85
2017-07-20T04:16:29.820Z,80
2017-07-20T04:17:40.056Z,85
2017-07-20T04:18:50.337Z,85
2017-07-20T04:20:00.319Z,90
2017-07-20T04:21:10.605Z,95
2017-07-20T04:22:20.893Z,100
2017-07-20T04:23:31.116Z,100
2017-07-20T04:24:41.088Z,105
2017-07-20T04:25:51.379Z,110
2017-07-20T04:27:01.672Z,110
2017-07-20T04:28:11.669Z,115
2017-07-20T04:29:22.217Z,120
2017-07-20T04:30:32.217Z,125
2017-07-20T04:31:42.502Z,130
2017-07-20T04:32:52.794Z,135
2017-07-20T04:34:02.772Z,135
2017-07-20T04:35:13.310Z,140
2017-07-20T04:36:23.299Z,145
2017-07-20T04:37:33.585Z,150
2017-07-20T04:38:43.882Z,155
2017-07-20T04:39:53.857Z,160
2017-07-20T04:41:04.092Z,160
2017-07-20T04:42:14.373Z,165
2017-07-20T04:43:24.339Z,170
2017-07-20T04:44:34.623Z,175
2017-07-20T04:45:44.914Z,175
2017-07-20T04:46:55.127Z,180
2017-07-20T04:48:05.403Z,180
2017-07-20T04:49:15.694Z,185
2017-07-20T04:50:25.969Z,185
2017-07-20T04:51:36.246Z,190
2017-07-20T04:52:46.766Z,190
2017-07-20T04:53:57.068Z,190
2017-07-20T04:55:07.115Z,190
2017-07-20T04:56:17.099Z,195
2017-07-20T04:57:27.072Z,200
2017-07-20T04:58:37.604Z,205
2017-07-20T04:59:47.878Z,215
2017-07-20T05:00:58.173Z,210
2017-07-20T05:02:08.459Z,215
2017-07-20T05:03:18.132Z,215
2017-07-20T05:04:28.658Z,215
2017-07-20T05:05:38.624Z,210
2017-07-20T05:06:48.896Z,215
2017-07-20T05:07:59.189Z,220
2017-07-20T05:09:09.472Z,215
2017-07-20T05:10:19.988Z,210
2017-07-20T05:11:29.966Z,210
2017-07-20T05:12:40.252Z,215
2017-07-20T05:13:50.217Z,215
2017-07-20T05:15:00.496Z,215
2017-07-20T05:16:11.016Z,215
2017-07-20T05:17:20.982Z,220
2017-07-20T05:18:30.668Z,225
2017-07-20T05:19:40.964Z,240
2017-07-20T05:20:51.259Z,235
2017-07-20T05:22:01.851Z,235
2017-07-20T05:23:11.828Z,235
2017-07-20T05:24:21.787Z,235
2017-07-20T05:25:31.767Z,230
2017-07-20T05:26:42.036Z,230
2017-07-20T05:27:52.570Z,235
2017-07-20T05:29:03.013Z,245
2017-07-20T05:30:13.288Z,250
2017-07-20T05:31:23.568Z,250
2017-07-20T05:32:33.840Z,255
2017-07-20T05:33:44.073Z,255
2017-07-20T05:34:54.344Z,255
2017-07-20T05:36:04.620Z,255
2017-07-20T05:37:14.912Z,260
2017-07-20T05:38:25.184Z,260
2017-07-20T05:39:35.818Z,265
2017-07-20T05:40:46.103Z,265
2017-07-20T05:41:56.390Z,265
2017-07-20T05:43:06.668Z,270
2017-07-20T05:44:16.943Z,270
2017-07-20T05:45:27.477Z,270
2017-07-20T05:46:37.442Z,275
2017-07-20T05:47:47.409Z,275
2017-07-20T05:48:57.395Z,280
2017-07-20T05:50:07.712Z,280
2017-07-20T05:51:18.250Z,280
2017-07-20T05:52:28.222Z,285
2017-07-20T05:53:38.510Z,285
2017-07-20T05:54:48.802Z,290
2017-07-20T05:55:59.111Z,295
2017-07-20T05:57:09.659Z,290
2017-07-20T05:58:19.643Z,290
2017-07-20T05:59:30.233Z,295
2017-07-20T06:00:40.501Z,295
2017-07-20T06:01:50.210Z,300
2017-07-20T06:03:00.738Z,300
2017-07-20T06:04:11.040Z,305
2017-07-20T06:05:20.740Z,305
2017-07-20T06:06:30.400Z,305
2017-07-20T06:07:40.699Z,310
2017-07-20T06:08:50.985Z,310
2017-07-20T06:10:01.281Z,315
2017-07-20T06:11:11.566Z,315
2017-07-20T06:12:21.885Z,320
2017-07-20T06:13:32.152Z,320
2017-07-20T06:14:42.377Z,325
2017-07-20T06:15:52.660Z,330
2017-07-20T06:17:02.938Z,330
2017-07-20T06:18:13.224Z,335
2017-07-20T06:19:23.203Z,340
2017-07-20T06:20:33.431Z,345
2017-07-20T06:21:43.716Z,350
2017-07-20T06:22:53.995Z,355
2017-07-20T06:24:04.286Z,360
2017-07-20T06:25:14.261Z,360
2017-07-20T06:26:24.492Z,365
2017-07-20T06:27:34.156Z,375
2017-07-20T06:28:44.431Z,385
2017-07-20T06:29:54.714Z,395
2017-07-20T06:31:04.684Z,400
2017-07-20T06:32:15.225Z,415
2017-07-20T06:33:25.520Z,425
2017-07-20T06:34:35.486Z,440
2017-07-20T06:35:45.454Z,450
2017-07-20T06:36:55.737Z,465
2017-07-20T06:38:05.968Z,485
2017-07-20T06:39:16.252Z,495
2017-07-20T06:40:25.613Z,505
2017-07-20T06:41:35.905Z,520
2017-07-20T06:42:46.183Z,530
2017-07-20T06:43:56.729Z,545
2017-07-20T06:45:07.056Z,555
2017-07-20T06:46:17.341Z,565
2017-07-20T06:47:27.659Z,570
2017-07-20T06:48:37.653Z,575
2017-07-20T06:49:48.180Z,575
2017-07-20T06:50:58.470Z,585
2017-07-20T06:52:08.756Z,585
2017-07-20T06:53:19.065Z,575
2017-07-20T06:54:29.044Z,570
2017-07-20T06:55:39.628Z,565
2017-07-20T06:56:49.612Z,550
2017-07-20T06:57:59.909Z,540
2017-07-20T06:59:10.235Z,530
2017-07-20T07:00:20.233Z,510
2017-07-20T07:01:30.463Z,495
2017-07-20T07:02:40.452Z,480
2017-07-20T07:03:50.738Z,465
2017-07-20T07:05:00.695Z,460
2017-07-20T07:06:11.004Z,455
2017-07-20T07:07:21.304Z,455
2017-07-20T07:08:31.288Z,465
2017-07-20T07:09:41.572Z,470
2017-07-20T07:10:51.854Z,490
2017-07-20T07:12:01.523Z,510
2017-07-20T07:13:12.072Z,525
2017-07-20T07:14:22.033Z,560
2017-07-20T07:15:32.011Z,570
2017-07-20T07:16:42.293Z,600
2017-07-20T07:17:52.579Z,615
2017-07-20T07:19:02.833Z,640
2017-07-20T07:20:13.131Z,655
2017-07-20T07:21:23.402Z,655
2017-07-20T07:22:33.701Z,650
2017-07-20T07:23:43.962Z,630
2017-07-20T07:24:54.530Z,615
2017-07-20T07:26:04.808Z,595
2017-07-20T07:27:15.103Z,575
2017-07-20T07:28:25.392Z,545
2017-07-20T07:29:35.685Z,515
2017-07-20T07:30:46.526Z,480
2017-07-20T07:31:56.898Z,450
2017-07-20T07:33:06.564Z,425
2017-07-20T07:34:16.592Z,435
2017-07-20T07:35:26.888Z,445
2017-07-20T07:36:37.434Z,480
2017-07-20T07:37:47.811Z,520
2017-07-20T07:38:58.137Z,545
2017-07-20T07:40:08.435Z,570
2017-07-20T07:41:18.745Z,605
2017-07-20T07:42:28.995Z,615
2017-07-20T07:43:39.298Z,650
2017-07-20T07:44:49.268Z,670
2017-07-20T07:45:59.273Z,685
2017-07-20T07:47:08.949Z,705
2017-07-20T07:48:19.534Z,720
2017-07-20T07:49:29.828Z,715
2017-07-20T07:50:40.139Z,700
2017-07-20T07:51:50.128Z,675
2017-07-20T07:53:00.135Z,630
2017-07-20T07:54:10.668Z,590
2017-07-20T07:55:20.956Z,540
2017-07-20T07:56:31.243Z,490
2017-07-20T07:57:41.552Z,465
2017-07-20T07:58:51.855Z,435
2017-07-20T08:00:02.082Z,420
2017-07-20T08:01:12.360Z,415
2017-07-20T08:02:22.654Z,420
2017-07-20T08:03:32.951Z,415
2017-07-20T08:04:42.932Z,430
2017-07-20T08:05:53.467Z,445
2017-07-20T08:07:03.764Z,455
2017-07-20T08:08:13.750Z,475
2017-07-20T08:09:23.769Z,485
2017-07-20T08:10:33.761Z,465
2017-07-20T08:11:44.052Z,455
2017-07-20T08:12:54.026Z,450
2017-07-20T08:14:03.987Z,460
2017-07-20T08:15:14.314Z,470
2017-07-20T08:16:24.609Z,495
2017-07-20T08:17:34.535Z,520
2017-07-20T08:18:44.815Z,540
2017-07-20T08:19:54.794Z,540
2017-07-20T08:21:04.759Z,545
2017-07-20T08:22:15.038Z,550
2017-07-20T08:23:25.271Z,570
2017-07-20T08:24:35.545Z,600
2017-07-20T08:25:45.507Z,590
2017-07-20T08:26:55.479Z,580
2017-07-20T08:28:05.782Z,590
2017-07-20T08:29:16.025Z,590
2017-07-20T08:30:26.003Z,590
2017-07-20T08:31:36.296Z,595
2017-07-20T08:32:46.262Z,605
2017-07-20T08:33:56.548Z,635
2017-07-20T08:35:06.188Z,650
2017-07-20T08:36:16.486Z,665
2017-07-20T08:37:26.770Z,745
2017-07-20T08:38:37.043Z,1175
2017-07-20T08:39:47.334Z,1435
2017-07-20T08:40:57.860Z,1330
2017-07-20T08:42:08.136Z,1425
2017-07-20T08:43:18.430Z,1265
2017-07-20T08:44:28.715Z,1280
2017-07-20T08:45:39.018Z,935
2017-07-20T08:46:49.300Z,1175
2017-07-20T08:47:59.286Z,1345
2017-07-20T08:49:09.271Z,1355
2017-07-20T08:50:19.565Z,1300
2017-07-20T08:51:29.550Z,1345
2017-07-20T08:52:40.086Z,1465
2017-07-20T08:53:50.398Z,1405
2017-07-20T08:55:00.075Z,1375
2017-07-20T08:56:10.347Z,1470
2017-07-20T08:57:20.325Z,1515
2017-07-20T08:58:30.636Z,1535
2017-07-20T08:59:40.312Z,1470
2017-07-20T09:00:50.283Z,1395
2017-07-20T09:01:59.980Z,1645
2017-07-20T09:03:10.273Z,1610
2017-07-20T09:04:20.819Z,1480
2017-07-20T09:05:30.809Z,1580
2017-07-20T09:06:41.109Z,1605
2017-07-20T09:07:51.419Z,1605
2017-07-20T09:09:01.694Z,1560
2017-07-20T09:10:12.261Z,1655
2017-07-20T09:11:22.565Z,1680
2017-07-20T09:12:32.543Z,1655
2017-07-20T09:13:42.516Z,1695
2017-07-20T09:14:52.810Z,1745
2017-07-20T09:16:03.047Z,1775
2017-07-20T09:17:13.018Z,1790
2017-07-20T09:18:22.998Z,1760
2017-07-20T09:19:33.296Z,1605
2017-07-20T09:20:43.637Z,1475
2017-07-20T09:21:53.866Z,1555
2017-07-20T09:23:04.157Z,1630
2017-07-20T09:24:14.475Z,1655
2017-07-20T09:25:24.480Z,1740
2017-07-20T09:26:34.457Z,1710
2017-07-20T09:27:45.061Z,1725
2017-07-20T09:28:55.049Z,1720
2017-07-20T09:30:05.350Z,1865
2017-07-20T09:31:15.638Z,1865
2017-07-20T09:32:25.599Z,1880
2017-07-20T09:33:36.167Z,1655
2017-07-20T09:34:46.468Z,1750
2017-07-20T09:35:56.459Z,1775
2017-07-20T09:37:06.489Z,1745
2017-07-20T09:38:16.782Z,1805
2017-07-20T09:39:27.008Z,1845
2017-07-20T09:40:37.299Z,1775
2017-07-20T09:41:47.593Z,1710
2017-07-20T09:42:57.898Z,1765
2017-07-20T09:44:08.202Z,2200
2017-07-20T09:45:18.453Z,2280
2017-07-20T09:46:28.446Z,1895
2017-07-20T09:47:38.759Z,1980
2017-07-20T09:48:48.769Z,2030
2017-07-20T09:49:58.771Z,2090
2017-07-20T09:51:09.338Z,2060
2017-07-20T09:52:19.621Z,2025
2017-07-20T09:53:29.920Z,2025
2017-07-20T09:54:40.232Z,2120
2017-07-20T09:55:50.537Z,2310
2017-07-20T09:57:01.102Z,2225
2017-07-20T09:58:11.405Z,1555
2017-07-20T09:59:21.702Z,2000
2017-07-20T10:00:31.685Z,2140
2017-07-20T10:01:41.968Z,2145
2017-07-20T10:02:52.522Z,2100
2017-07-20T10:04:02.841Z,2065
2017-07-20T10:05:13.174Z,2185
2017-07-20T10:06:23.162Z,2135
2017-07-20T10:07:33.476Z,2170
2017-07-20T10:08:44.042Z,2210
2017-07-20T10:09:54.340Z,2250
2017-07-20T10:11:04.408Z,2250
2017-07-20T10:12:14.445Z,2215
2017-07-20T10:13:24.785Z,2200
2017-07-20T10:14:35.360Z,2190
2017-07-20T10:15:45.627Z,2140
2017-07-20T10:16:55.606Z,2285
2017-07-20T10:18:05.599Z,2415
2017-07-20T10:19:16.069Z,2305
2017-07-20T10:20:26.313Z,2175
2017-07-20T10:21:36.593Z,2435
2017-07-20T10:22:46.582Z,2405
2017-07-20T10:23:56.869Z,2345
2017-07-20T10:25:07.175Z,2370
2017-07-20T10:26:17.719Z,2320
2017-07-20T10:27:28.021Z,2490
2017-07-20T10:28:38.323Z,2650
2017-07-20T10:29:48.324Z,2440
2017-07-20T10:30:58.615Z,2380
2017-07-20T10:32:08.586Z,2375
2017-07-20T10:33:18.877Z,2495
2017-07-20T10:34:29.170Z,2775
2017-07-20T10:35:39.461Z,2790
2017-07-20T10:36:49.763Z,2490
2017-07-20T10:38:00.313Z,2465
2017-07-20T10:39:10.604Z,2545
2017-07-20T10:40:20.911Z,2545
2017-07-20T10:41:31.211Z,2560
2017-07-20T10:42:41.208Z,2585
2017-07-20T10:43:51.800Z,2560
2017-07-20T10:45:01.907Z,2515
2017-07-20T10:46:11.934Z,2650
2017-07-20T10:47:22.208Z,2765
2017-07-20T10:48:32.521Z,2775
2017-07-20T10:49:42.774Z,2615
2017-07-20T10:50:52.762Z,2540
2017-07-20T10:52:02.756Z,2555
2017-07-20T10:53:12.744Z,2685
2017-07-20T10:54:22.412Z,2715
2017-07-20T10:55:32.985Z,2700
2017-07-20T10:56:43.274Z,2700
2017-07-20T10:57:53.577Z,2710
2017-07-20T10:59:03.903Z,2675
2017-07-20T11:00:14.212Z,2650
2017-07-20T11:01:24.759Z,2735
2017-07-20T11:02:34.751Z,1275
2017-07-20T11:03:45.061Z,2930
2017-07-20T11:04:55.355Z,2950
2017-07-20T11:06:05.661Z,2765
2017-07-20T11:07:16.220Z,2730
2017-07-20T11:08:26.516Z,2705
2017-07-20T11:09:36.504Z,2635
2017-07-20T11:10:46.827Z,2675
2017-07-20T11:11:56.494Z,2725
2017-07-20T11:13:07.042Z,2690
2017-07-20T11:14:17.040Z,2680
2017-07-20T11:15:27.031Z,3030
2017-07-20T11:16:37.021Z,2975
2017-07-20T11:17:47.349Z,2765
2017-07-20T11:18:57.922Z,2775
2017-07-20T11:20:07.918Z,3010
2017-07-20T11:21:18.212Z,2955
2017-07-20T11:22:28.526Z,2915
2017-07-20T11:23:38.839Z,2780
2017-07-20T11:24:49.384Z,2945
2017-07-20T11:25:59.698Z,2985
2017-07-20T11:27:10.014Z,3005
2017-07-20T11:28:20.295Z,2945
2017-07-20T11:29:30.593Z,3000
2017-07-20T11:30:41.130Z,1130
2017-07-20T11:31:51.111Z,930
2017-07-20T11:33:01.400Z,945
2017-07-20T11:34:11.388Z,2365
2017-07-20T11:35:21.054Z,930
2017-07-20T11:36:31.274Z,915
2017-07-20T11:37:41.585Z,940
2017-07-20T11:38:51.604Z,860
2017-07-20T11:40:01.906Z,815
2017-07-20T11:41:12.203Z,835
2017-07-20T11:42:22.724Z,880
2017-07-20T11:43:32.416Z,995
2017-07-20T11:44:42.400Z,1715
2017-07-20T11:45:52.692Z,1200
2017-07-20T11:47:02.993Z,1320
2017-07-20T11:48:13.538Z,3180
2017-07-20T11:49:23.836Z,3155
2017-07-20T11:50:34.126Z,3120
2017-07-20T11:51:44.409Z,3175
2017-07-20T11:52:54.092Z,3190
2017-07-20T11:54:04.327Z,3250
2017-07-20T11:55:14.298Z,3205
2017-07-20T11:56:24.583Z,3240
2017-07-20T11:57:34.558Z,3245
2017-07-20T11:58:43.907Z,3245
2017-07-20T11:59:54.469Z,3250
2017-07-20T12:01:04.769Z,3310
2017-07-20T12:02:15.067Z,3275
2017-07-20T12:03:25.367Z,3290
2017-07-20T12:04:35.660Z,3280
2017-07-20T12:05:46.200Z,3165
2017-07-20T12:06:56.222Z,3025
2017-07-20T12:08:06.531Z,2795
2017-07-20T12:09:16.591Z,2760
2017-07-20T12:10:26.880Z,2995
2017-07-20T12:11:37.474Z,3090
2017-07-20T12:12:47.767Z,3200
2017-07-20T12:13:58.065Z,3270
2017-07-20T12:15:08.381Z,3340
2017-07-20T12:16:18.701Z,3335
2017-07-20T12:17:29.256Z,3360
2017-07-20T12:18:39.560Z,3190
2017-07-20T12:19:49.860Z,3265
2017-07-20T12:20:59.837Z,3405
2017-07-20T12:22:09.811Z,2275
2017-07-20T12:23:20.370Z,1655
2017-07-20T12:24:30.360Z,1610
2017-07-20T12:25:40.387Z,1630
2017-07-20T12:26:50.684Z,2095
2017-07-20T12:28:00.696Z,2355
2017-07-20T12:29:10.934Z,2920
2017-07-20T12:30:21.229Z,3610
2017-07-20T12:31:31.205Z,2525
2017-07-20T12:32:41.488Z,3205
2017-07-20T12:33:51.469Z,3450
2017-07-20T12:35:02.026Z,3195
2017-07-20T12:36:12.050Z,2975
2017-07-20T12:37:22.043Z,3210
2017-07-20T12:38:32.341Z,3365
2017-07-20T12:39:42.657Z,1685
2017-07-20T12:40:53.211Z,3025
2017-07-20T12:42:03.506Z,2910
2017-07-20T12:43:13.483Z,1805
2017-07-20T12:44:23.170Z,1340
2017-07-20T12:45:33.156Z,1515
2017-07-20T12:46:43.717Z,2155
2017-07-20T12:47:54.006Z,2215
2017-07-20T12:49:03.690Z,1790
2017-07-20T12:50:14.000Z,2315
2017-07-20T12:51:24.308Z,1595
2017-07-20T12:52:34.883Z,990
2017-07-20T12:53:45.203Z,900
2017-07-20T12:54:55.493Z,835
2017-07-20T12:56:05.780Z,805
2017-07-20T12:57:15.749Z,795
2017-07-20T12:58:25.969Z,825
2017-07-20T12:59:35.947Z,830
2017-07-20T13:00:46.247Z,835
2017-07-20T13:01:56.535Z,845
2017-07-20T13:03:06.538Z,850
2017-07-20T13:04:17.073Z,850
2017-07-20T13:05:27.368Z,845
2017-07-20T13:06:37.366Z,840
2017-07-20T13:07:47.380Z,835
2017-07-20T13:08:57.660Z,855
2017-07-20T13:10:08.202Z,910
2017-07-20T13:11:18.191Z,1000
2017-07-20T13:12:28.170Z,1110
2017-07-20T13:13:38.145Z,1295
2017-07-20T13:14:48.419Z,1635
2017-07-20T13:15:58.661Z,2085
2017-07-20T13:17:08.636Z,1955
2017-07-20T13:18:18.627Z,2400
2017-07-20T13:19:28.930Z,2880
2017-07-20T13:20:39.256Z,2015
2017-07-20T13:21:49.799Z,2190
2017-07-20T13:23:00.086Z,1995
2017-07-20T13:24:10.379Z,1815
2017-07-20T13:25:20.929Z,2730
2017-07-20T13:26:31.214Z,3745
2017-07-20T13:27:41.490Z,3800
2017-07-20T13:28:51.479Z,3695
2017-07-20T13:30:01.150Z,3655
2017-07-20T13:31:11.149Z,3395
2017-07-20T13:32:21.136Z,3575
2017-07-20T13:33:31.707Z,3120
2017-07-20T13:34:41.678Z,3035
2017-07-20T13:35:51.359Z,2675
2017-07-20T13:37:01.655Z,2085
2017-07-20T13:38:11.958Z,1330
2017-07-20T13:39:22.510Z,1535
2017-07-20T13:40:32.500Z,1480
2017-07-20T13:41:42.479Z,1515
2017-07-20T13:42:52.146Z,1690
2017-07-20T13:44:02.426Z,3560
2017-07-20T13:45:12.978Z,3570
2017-07-20T13:46:23.286Z,3135
2017-07-20T13:47:33.572Z,3525
2017-07-20T13:48:43.868Z,3390
2017-07-20T13:49:54.156Z,2370
2017-07-20T13:51:04.719Z,1885
2017-07-20T13:52:15.006Z,2225
2017-07-20T13:53:25.316Z,1495
2017-07-20T13:54:35.614Z,1305
2017-07-20T13:55:45.927Z,1280
2017-07-20T13:56:56.491Z,1235
2017-07-20T13:58:06.155Z,1260
2017-07-20T13:59:16.130Z,1815
2017-07-20T14:00:26.424Z,1430
2017-07-20T14:01:36.707Z,1410
2017-07-20T14:02:47.266Z,1415
2017-07-20T14:03:56.931Z,1650
2017-07-20T14:05:06.952Z,1500
2017-07-20T14:06:16.929Z,1450
2017-07-20T14:07:27.230Z,1990
2017-07-20T14:08:37.774Z,1895
2017-07-20T14:09:47.459Z,1615
2017-07-20T14:10:57.759Z,2915
2017-07-20T14:12:07.741Z,2730
2017-07-20T14:13:18.039Z,2610
2017-07-20T14:14:28.589Z,2540
2017-07-20T14:15:38.881Z,2450
2017-07-20T14:16:49.192Z,1025
2017-07-20T14:17:59.182Z,905
2017-07-20T14:19:09.172Z,895
2017-07-20T14:20:19.716Z,800
2017-07-20T14:21:30.013Z,735
2017-07-20T14:22:40.002Z,670
2017-07-20T14:23:50.301Z,645
2017-07-20T14:25:00.586Z,635
2017-07-20T14:26:11.149Z,625
2017-07-20T14:27:21.130Z,620
2017-07-20T14:28:30.787Z,620
2017-07-20T14:29:40.779Z,620
2017-07-20T14:30:51.105Z,610
2017-07-20T14:32:01.670Z,615
2017-07-20T14:33:11.980Z,640
2017-07-20T14:34:22.280Z,690
2017-07-20T14:35:32.277Z,805
2017-07-20T14:36:42.259Z,950
2017-07-20T14:37:52.504Z,960
2017-07-20T14:39:02.789Z,935
2017-07-20T14:40:13.074Z,1005
2017-07-20T14:41:23.408Z,1135
2017-07-20T14:42:32.754Z,1130
2017-07-20T14:43:43.295Z,1035
2017-07-20T14:44:53.276Z,1010
2017-07-20T14:46:03.569Z,970
2017-07-20T14:47:13.860Z,890
2017-07-20T14:48:23.846Z,830
2017-07-20T14:49:34.424Z,1290
2017-07-20T14:50:44.398Z,690
2017-07-20T14:51:54.382Z,645
2017-07-20T14:53:04.347Z,600
2017-07-20T14:54:14.346Z,690
2017-07-20T14:55:24.896Z,450
2017-07-20T14:56:35.183Z,400
2017-07-20T14:57:45.175Z,360
2017-07-20T14:58:55.168Z,365
2017-07-20T15:00:05.126Z,330
2017-07-20T15:01:15.666Z,310
2017-07-20T15:02:25.674Z,290
2017-07-20T15:03:35.981Z,270
2017-07-20T15:04:46.257Z,250
2017-07-20T15:05:56.539Z,225
2017-07-20T15:07:07.093Z,210
2017-07-20T15:08:17.397Z,205
2017-07-20T15:09:27.694Z,200
2017-07-20T15:10:37.986Z,185
2017-07-20T15:11:48.268Z,170
2017-07-20T15:12:58.817Z,155
2017-07-20T15:14:08.806Z,150
2017-07-20T15:15:19.123Z,130
2017-07-20T15:16:29.108Z,115
2017-07-20T15:17:39.384Z,100
2017-07-20T15:18:49.933Z,95
2017-07-20T15:20:00.225Z,90
2017-07-20T15:21:10.197Z,85
2017-07-20T15:22:20.493Z,80
2017-07-20T15:23:30.480Z,80
2017-07-20T15:24:41.014Z,85
2017-07-20T15:25:50.673Z,85
2017-07-20T15:27:00.981Z,90
2017-07-20T15:28:11.269Z,90
2017-07-20T15:29:21.262Z,90
2017-07-20T15:30:31.798Z,90
2017-07-20T15:31:41.774Z,90
2017-07-20T15:32:52.073Z,90
2017-07-20T15:34:02.348Z,95
2017-07-20T15:35:12.647Z,100
2017-07-20T15:36:23.187Z,110
2017-07-20T15:37:33.474Z,125
2017-07-20T15:38:43.649Z,145
2017-07-20T15:39:53.930Z,165
2017-07-20T15:41:04.237Z,180
2017-07-20T15:42:14.466Z,205
2017-07-20T15:43:24.457Z,225
2017-07-20T15:44:34.750Z,245
2017-07-20T15:45:45.033Z,260
2017-07-20T15:46:55.360Z,285
2017-07-20T15:48:05.923Z,310
2017-07-20T15:49:15.908Z,330
2017-07-20T15:50:26.201Z,350
2017-07-20T15:51:36.174Z,360
2017-07-20T15:52:45.861Z,365
2017-07-20T15:53:56.405Z,360
2017-07-20T15:55:06.691Z,350
2017-07-20T15:56:16.657Z,345
2017-07-20T15:57:26.955Z,350
2017-07-20T15:58:37.236Z,355
2017-07-20T15:59:47.506Z,370
2017-07-20T16:00:57.791Z,380
2017-07-20T16:02:07.788Z,400
2017-07-20T16:03:18.077Z,415
2017-07-20T16:04:28.069Z,430
2017-07-20T16:05:38.605Z,440
2017-07-20T16:06:48.891Z,445
2017-07-20T16:07:59.167Z,455
2017-07-20T16:09:09.461Z,460
2017-07-20T16:10:19.735Z,480
2017-07-20T16:11:30.271Z,515